Time;durP1;ratioP1;P1;durP2;ratioP2;P2;SDS_P1;SDS_P2;PMS_P1;PMS_P2;Temp;Humidity;BMP_temperature;BMP_pressure;BME280_temperature;BME280_humidity;BME280_pressure;Samples;Min_cycle;Max_cycle;Signal;HPM_P1;HPM_P2
2021/04/04 00:00:36;;;;;;;29.25;3.60;;;5.90;75.70;;;;;;5052368;28;20032;-81
2021/04/04 00:03:03;;;;;;;24.23;3.35;;;5.90;75.70;;;;;;5083637;28;20060;-80
2021/04/04 00:05:29;;;;;;;20.90;3.70;;;5.90;75.70;;;;;;5060613;28;20082;-81
2021/04/04 00:07:55;;;;;;;10.35;2.92;;;5.90;75.60;;;;;;5085674;28;20886;-82
2021/04/04 00:10:21;;;;;;;20.80;3.50;;;5.90;75.80;;;;;;5064270;28;20680;-80
2021/04/04 00:12:47;;;;;;;18.52;2.67;;;5.90;75.80;;;;;;5089209;28;20039;-80
2021/04/04 00:15:14;;;;;;;15.82;2.97;;;5.90;75.80;;;;;;5082493;28;20035;-81
2021/04/04 00:17:40;;;;;;;20.73;3.25;;;5.90;75.80;;;;;;5066839;28;20231;-80
2021/04/04 00:20:14;;;;;;;17.83;3.38;;;5.90;76.10;;;;;;5064253;28;20036;-79
2021/04/04 00:22:40;;;;;;;14.73;3.47;;;5.90;76.30;;;;;;5083455;28;20128;-80
2021/04/04 00:25:09;;;;;;;26.00;3.58;;;5.90;76.70;;;;;;5082777;28;20024;-80
2021/04/04 00:27:35;;;;;;;25.05;3.67;;;5.80;77.20;;;;;;5081466;28;20036;-81
2021/04/04 00:30:12;;;;;;;17.35;3.28;;;5.80;77.90;;;;;;5071180;28;20039;-80
2021/04/04 00:32:39;;;;;;;19.58;4.03;;;5.80;78.10;;;;;;5063352;28;20764;-81
2021/04/04 00:35:19;;;;;;;18.13;3.50;;;5.70;78.50;;;;;;5082250;28;20107;-80
2021/04/04 00:37:48;;;;;;;17.02;3.70;;;5.70;79.20;;;;;;5082929;28;20047;-81
2021/04/04 00:40:15;;;;;;;16.35;3.42;;;5.70;79.10;;;;;;5085635;28;20043;-81
2021/04/04 00:42:41;;;;;;;21.17;3.50;;;5.70;79.20;;;;;;5084006;28;20028;-80
2021/04/04 00:45:18;;;;;;;23.63;3.47;;;5.60;79.20;;;;;;5066297;28;20525;-80
2021/04/04 00:47:45;;;;;;;18.30;2.90;;;5.60;79.40;;;;;;5080674;28;20032;-80
2021/04/04 00:50:11;;;;;;;16.63;3.00;;;5.60;79.50;;;;;;5083728;28;20028;-80
2021/04/04 00:52:38;;;;;;;14.40;3.05;;;5.60;79.50;;;;;;5083505;28;21725;-80
2021/04/04 00:55:06;;;;;;;17.10;3.30;;;5.60;79.70;;;;;;5062613;28;20036;-80
2021/04/04 00:57:33;;;;;;;15.45;2.97;;;5.60;79.70;;;;;;5083972;28;20115;-81
2021/04/04 01:00:00;;;;;;;15.95;3.58;;;5.60;80.10;;;;;;5081340;28;20036;-81
2021/04/04 01:02:26;;;;;;;26.35;3.60;;;5.60;80.30;;;;;;5081609;28;20036;-80
2021/04/04 01:04:53;;;;;;;20.77;3.05;;;5.60;80.50;;;;;;5078221;28;20058;-80
2021/04/04 01:07:19;;;;;;;19.23;2.97;;;5.70;80.60;;;;;;5051103;28;20134;-80
2021/04/04 01:09:45;;;;;;;18.75;3.15;;;5.60;80.70;;;;;;5067699;28;20154;-80
2021/04/04 01:12:22;;;;;;;23.55;3.35;;;5.60;80.90;;;;;;5068336;28;20462;-80
2021/04/04 01:14:58;;;;;;;19.25;3.67;;;5.60;81.00;;;;;;5079972;28;20473;-80
2021/04/04 01:17:25;;;;;;;16.65;3.42;;;5.60;81.50;;;;;;5080436;28;20028;-80
2021/04/04 01:20:14;;;;;;;19.65;2.90;;;5.50;81.70;;;;;;5079496;28;20059;-80
2021/04/04 01:22:58;;;;;;;33.17;4.05;;;5.50;81.70;;;;;;5083169;28;20043;-80
2021/04/04 01:25:40;;;;;;;20.75;3.97;;;5.50;81.90;;;;;;5079432;28;20438;-80
2021/04/04 01:28:11;;;;;;;19.40;3.87;;;5.50;82.00;;;;;;5081269;28;20043;-80
2021/04/04 01:30:40;;;;;;;19.38;3.10;;;5.50;82.00;;;;;;5080765;28;20040;-80
2021/04/04 01:33:13;;;;;;;19.63;3.53;;;5.50;82.10;;;;;;5083101;28;20119;-80
2021/04/04 01:35:47;;;;;;;17.30;3.00;;;5.50;82.50;;;;;;5079497;28;20031;-81
2021/04/04 01:38:15;;;;;;;19.05;3.25;;;5.50;82.60;;;;;;5082285;28;20088;-80
2021/04/04 01:40:44;;;;;;;19.67;3.85;;;5.50;82.80;;;;;;5082735;28;20027;-80
2021/04/04 01:43:11;;;;;;;14.68;3.05;;;5.50;82.90;;;;;;5081180;28;20055;-81
2021/04/04 01:45:40;;;;;;;22.83;3.78;;;5.50;83.00;;;;;;5079640;28;20036;-80
2021/04/04 01:48:07;;;;;;;20.42;3.83;;;5.40;83.50;;;;;;5081908;28;20043;-80
2021/04/04 01:50:33;;;;;;;21.90;3.55;;;5.40;84.20;;;;;;5083557;28;20067;-80
2021/04/04 01:53:01;;;;;;;20.63;3.42;;;5.40;83.50;;;;;;5082490;28;20271;-81
2021/04/04 01:55:27;;;;;;;23.58;4.03;;;5.40;83.70;;;;;;5084061;28;20036;-80
2021/04/04 01:57:54;;;;;;;21.95;4.50;;;5.40;83.70;;;;;;5057305;28;20039;-80
2021/04/04 02:00:24;;;;;;;19.67;3.53;;;5.40;83.90;;;;;;5083406;28;20470;-80
2021/04/04 02:02:51;;;;;;;22.13;3.50;;;5.40;84.10;;;;;;5076319;28;20092;-81
2021/04/04 02:05:18;;;;;;;21.35;3.70;;;5.40;84.40;;;;;;5058262;28;20040;-80
2021/04/04 02:07:46;;;;;;;14.63;3.47;;;5.40;84.60;;;;;;5079289;28;20463;-80
2021/04/04 02:10:18;;;;;;;22.90;3.15;;;5.40;84.80;;;;;;5079602;28;20509;-80
2021/04/04 02:12:44;;;;;;;24.45;4.03;;;5.40;84.90;;;;;;5078930;28;20040;-80
2021/04/04 02:15:12;;;;;;;16.95;3.42;;;5.40;84.80;;;;;;5078848;28;20330;-80
2021/04/04 02:17:39;;;;;;;20.27;3.30;;;5.40;84.70;;;;;;5080265;28;20097;-80
2021/04/04 02:20:12;;;;;;;17.20;3.28;;;5.40;84.70;;;;;;5079965;28;20029;-81
2021/04/04 02:22:40;;;;;;;18.52;3.08;;;5.40;85.00;;;;;;5078477;28;20036;-80
2021/04/04 02:25:10;;;;;;;18.08;3.00;;;5.40;85.00;;;;;;5080146;28;20044;-80
2021/04/04 02:27:39;;;;;;;19.10;3.67;;;5.40;85.20;;;;;;5083213;28;20064;-80
2021/04/04 02:30:06;;;;;;;19.15;5.25;;;5.40;85.20;;;;;;5082150;28;20035;-80
2021/04/04 02:32:36;;;;;;;19.80;3.63;;;5.40;85.10;;;;;;5072392;28;20481;-80
2021/04/04 02:35:03;;;;;;;16.70;3.35;;;5.40;85.10;;;;;;5061506;28;20028;-80
2021/04/04 02:37:29;;;;;;;18.75;2.83;;;5.40;85.10;;;;;;5063656;28;20029;-80
2021/04/04 02:40:01;;;;;;;17.35;2.85;;;5.40;85.30;;;;;;5078750;28;20470;-80
2021/04/04 02:42:29;;;;;;;18.45;3.20;;;5.40;85.30;;;;;;5077178;28;20243;-80
2021/04/04 02:44:58;;;;;;;19.15;3.03;;;5.40;85.30;;;;;;5077305;28;20509;-81
2021/04/04 02:47:49;;;;;;;20.30;3.20;;;5.40;85.30;;;;;;5079909;28;20048;-81
2021/04/04 02:50:16;;;;;;;25.35;3.55;;;5.40;85.50;;;;;;5078455;28;20562;-80
2021/04/04 02:52:43;;;;;;;18.77;3.65;;;5.40;85.50;;;;;;5063414;28;20028;-80
2021/04/04 02:55:10;;;;;;;16.35;2.97;;;5.40;85.40;;;;;;5075330;28;20435;-80
2021/04/04 02:57:37;;;;;;;21.73;3.75;;;5.40;85.40;;;;;;5076235;28;20059;-80
2021/04/04 03:00:07;;;;;;;19.15;3.65;;;5.40;85.50;;;;;;5080183;28;20045;-80
2021/04/04 03:02:36;;;;;;;18.10;3.28;;;5.40;85.50;;;;;;5078194;28;20448;-81
2021/04/04 03:05:07;;;;;;;21.00;3.10;;;5.40;85.50;;;;;;5079530;28;20123;-81
2021/04/04 03:07:36;;;;;;;14.82;3.05;;;5.40;85.50;;;;;;5078214;28;20136;-80
2021/04/04 03:10:04;;;;;;;20.15;3.00;;;5.40;86.10;;;;;;5076587;28;20033;-80
2021/04/04 03:12:33;;;;;;;16.27;2.75;;;5.40;85.30;;;;;;5061468;28;20152;-80
2021/04/04 03:15:01;;;;;;;10.88;2.80;;;5.40;85.30;;;;;;5078485;28;20032;-80
2021/04/04 03:17:29;;;;;;;12.77;3.15;;;5.40;85.40;;;;;;5067354;28;20039;-80
2021/04/04 03:19:57;;;;;;;16.45;2.60;;;5.40;85.40;;;;;;5079667;28;20372;-80
2021/04/04 03:22:23;;;;;;;20.50;3.10;;;5.40;85.30;;;;;;5078890;28;20028;-80
2021/04/04 03:24:52;;;;;;;16.13;2.60;;;5.40;85.30;;;;;;5062359;28;20119;-80
2021/04/04 03:27:19;;;;;;;19.17;3.00;;;5.50;85.50;;;;;;5075868;28;20075;-80
2021/04/04 03:29:45;;;;;;;19.02;2.58;;;5.40;85.50;;;;;;5062526;28;20028;-80
2021/04/04 03:32:12;;;;;;;13.65;2.60;;;5.40;85.30;;;;;;5079794;28;20095;-81
2021/04/04 03:34:38;;;;;;;21.45;3.00;;;5.40;85.20;;;;;;5079131;28;20039;-81
2021/04/04 03:37:04;;;;;;;8.75;2.03;;;5.40;85.20;;;;;;5073666;28;20498;-80
2021/04/04 03:39:30;;;;;;;20.38;2.70;;;5.50;85.20;;;;;;5060969;28;20044;-80
2021/04/04 03:41:58;;;;;;;13.55;2.80;;;5.50;85.10;;;;;;5065803;28;20062;-80
2021/04/04 03:44:27;;;;;;;17.90;3.50;;;5.40;85.00;;;;;;5086330;28;20040;-80
2021/04/04 03:46:54;;;;;;;10.98;2.95;;;5.50;85.10;;;;;;5084452;28;20133;-80
2021/04/04 03:49:21;;;;;;;8.82;2.33;;;5.40;85.00;;;;;;5080704;28;20035;-80
2021/04/04 03:51:47;;;;;;;13.02;2.92;;;5.50;85.00;;;;;;5082432;28;20131;-80
2021/04/04 03:54:15;;;;;;;15.07;2.70;;;5.50;84.80;;;;;;5080982;28;20032;-80
2021/04/04 03:56:47;;;;;;;15.10;2.97;;;5.50;84.80;;;;;;5079696;28;20115;-80
2021/04/04 03:59:14;;;;;;;16.10;3.20;;;5.50;84.70;;;;;;5086051;28;20482;-81
2021/04/04 04:01:44;;;;;;;16.23;2.65;;;5.50;84.60;;;;;;5067278;28;20466;-80
2021/04/04 04:04:12;;;;;;;12.95;2.85;;;5.50;84.50;;;;;;5060708;28;20105;-80
2021/04/04 04:06:40;;;;;;;13.82;2.80;;;5.50;84.50;;;;;;5079606;28;20086;-79
2021/04/04 04:09:12;;;;;;;14.00;2.75;;;5.50;84.40;;;;;;5078408;28;20029;-78
2021/04/04 04:11:40;;;;;;;12.85;3.10;;;5.50;84.30;;;;;;5080039;28;20068;-79
2021/04/04 04:14:08;;;;;;;10.88;2.58;;;5.50;84.20;;;;;;5078315;28;20036;-79
2021/04/04 04:16:37;;;;;;;14.40;3.03;;;5.50;84.00;;;;;;5076705;28;20032;-79
2021/04/04 04:19:05;;;;;;;12.63;2.60;;;5.50;84.00;;;;;;5063669;28;20030;-79
2021/04/04 04:21:36;;;;;;;12.82;2.40;;;5.50;83.90;;;;;;5083594;28;20068;-79
2021/04/04 04:24:05;;;;;;;10.48;2.40;;;5.50;83.80;;;;;;5080202;28;20043;-79
2021/04/04 04:26:33;;;;;;;12.45;3.00;;;5.50;83.80;;;;;;5081953;28;20465;-79
2021/04/04 04:29:01;;;;;;;11.82;3.00;;;5.50;83.70;;;;;;5079434;28;20498;-80
2021/04/04 04:31:32;;;;;;;18.77;3.15;;;5.50;83.70;;;;;;5081753;28;20107;-79
2021/04/04 04:33:58;;;;;;;12.40;2.63;;;5.50;83.70;;;;;;5082232;28;20028;-79
2021/04/04 04:36:26;;;;;;;14.13;3.13;;;5.50;83.60;;;;;;5078943;28;20036;-79
2021/04/04 04:38:52;;;;;;;14.27;2.88;;;5.50;83.50;;;;;;5079069;28;20032;-79
2021/04/04 04:41:19;;;;;;;11.48;2.60;;;5.50;83.60;;;;;;5064227;28;20036;-79
2021/04/04 04:43:52;;;;;;;13.63;3.00;;;5.60;83.70;;;;;;5083255;28;20137;-79
2021/04/04 04:46:19;;;;;;;10.60;2.90;;;5.60;83.50;;;;;;5078697;28;20035;-79
2021/04/04 04:48:45;;;;;;;17.75;3.30;;;5.50;83.40;;;;;;5080034;28;20034;-79
2021/04/04 04:51:11;;;;;;;13.32;3.35;;;5.50;83.50;;;;;;5079605;28;20405;-79
2021/04/04 04:53:38;;;;;;;14.23;3.13;;;5.50;83.60;;;;;;5080863;28;20493;-79
2021/04/04 04:56:04;;;;;;;13.23;3.08;;;5.50;83.60;;;;;;5077483;28;20165;-79
2021/04/04 04:58:31;;;;;;;13.75;3.85;;;5.50;83.60;;;;;;5079912;28;20482;-79
2021/04/04 05:01:01;;;;;;;12.20;2.83;;;5.50;84.40;;;;;;5079885;28;20111;-79
2021/04/04 05:03:27;;;;;;;14.43;3.33;;;5.50;83.70;;;;;;5083733;28;20494;-79
2021/04/04 05:05:52;;;;;;;14.13;3.53;;;5.50;83.90;;;;;;5084320;28;20055;-79
2021/04/04 05:08:20;;;;;;;10.98;3.67;;;5.50;83.80;;;;;;5079480;28;20032;-79
2021/04/04 05:10:47;;;;;;;13.10;3.33;;;5.50;83.90;;;;;;5079222;28;20036;-79
2021/04/04 05:13:13;;;;;;;10.05;3.15;;;5.60;83.80;;;;;;5063837;28;20040;-79
2021/04/04 05:15:41;;;;;;;8.80;3.15;;;5.50;83.70;;;;;;5063230;28;20031;-79
2021/04/04 05:18:07;;;;;;;15.77;3.80;;;5.50;83.70;;;;;;5070711;28;20188;-78
2021/04/04 05:20:33;;;;;;;14.00;3.50;;;5.50;83.60;;;;;;5077931;28;20476;-79
2021/04/04 05:23:00;;;;;;;11.63;3.55;;;5.60;83.70;;;;;;5079224;28;20035;-80
2021/04/04 05:25:27;;;;;;;11.60;3.70;;;5.50;83.70;;;;;;5079987;28;20116;-79
2021/04/04 05:27:55;;;;;;;15.68;3.78;;;5.50;83.60;;;;;;5059935;28;20029;-78
2021/04/04 05:30:25;;;;;;;15.80;3.72;;;5.60;83.60;;;;;;5080331;28;20463;-79
2021/04/04 05:32:52;;;;;;;16.85;4.00;;;5.60;83.60;;;;;;5076717;28;20115;-78
2021/04/04 05:35:20;;;;;;;17.17;4.07;;;5.60;83.60;;;;;;5077538;28;20558;-79
2021/04/04 05:37:46;;;;;;;13.65;3.50;;;5.60;83.60;;;;;;5075345;28;20051;-79
2021/04/04 05:40:22;;;;;;;15.35;3.85;;;5.60;83.70;;;;;;5077457;28;20032;-79
2021/04/04 05:42:55;;;;;;;16.90;4.68;;;5.60;83.70;;;;;;5076703;28;20047;-79
2021/04/04 05:45:28;;;;;;;21.42;5.22;;;5.60;83.60;;;;;;5076144;28;20032;-78
2021/04/04 05:48:06;;;;;;;12.70;4.55;;;5.60;83.40;;;;;;5055255;28;20044;-78
2021/04/04 05:50:46;;;;;;;20.77;5.00;;;5.70;83.20;;;;;;5070861;28;20028;-79
2021/04/04 05:53:46;;;;;;;16.88;5.22;;;5.60;82.90;;;;;;5076126;28;20039;-78
2021/04/04 05:56:24;;;;;;;20.98;5.65;;;5.70;82.80;;;;;;5073361;28;20589;-79
2021/04/04 05:59:07;;;;;;;22.88;6.18;;;5.70;82.40;;;;;;5071923;28;20074;-79
2021/04/04 06:01:33;;;;;;;18.55;6.00;;;5.70;82.00;;;;;;5074855;28;20028;-79
2021/04/04 06:04:27;;;;;;;19.77;6.93;;;5.70;81.80;;;;;;5065297;28;20084;-79
2021/04/04 06:07:49;;;;;;;19.35;5.65;;;5.70;81.60;;;;;;5077510;28;20530;-79
2021/04/04 06:10:55;;;;;;;16.05;5.90;;;5.70;81.60;;;;;;5037912;28;20075;-79
2021/04/04 06:13:52;;;;;;;31.95;7.07;;;5.70;81.60;;;;;;5058001;28;20494;-79
2021/04/04 06:16:40;;;;;;;25.85;7.32;;;5.70;81.40;;;;;;5073037;28;20021;-79
2021/04/04 06:19:27;;;;;;;20.58;6.82;;;5.80;81.30;;;;;;5073764;28;20417;-79
2021/04/04 06:22:14;;;;;;;18.73;6.65;;;5.80;80.80;;;;;;5075783;28;20068;-79
2021/04/04 06:25:04;;;;;;;17.38;6.43;;;5.80;80.60;;;;;;5090752;28;20058;-79
2021/04/04 06:27:33;;;;;;;19.80;7.22;;;5.80;80.20;;;;;;5063832;28;20052;-79
2021/04/04 06:30:01;;;;;;;17.75;6.95;;;5.90;79.90;;;;;;5077554;28;20032;-79
2021/04/04 06:32:56;;;;;;;17.48;6.45;;;5.70;79.80;;;;;;5083969;28;20710;-79
2021/04/04 06:35:38;;;;;;;19.63;7.55;;;5.80;79.60;;;;;;5059254;28;20056;-79
2021/04/04 06:38:16;;;;;;;20.87;7.33;;;5.90;79.70;;;;;;5079461;28;20052;-80
2021/04/04 06:41:20;;;;;;;18.15;7.85;;;5.80;79.70;;;;;;5048410;28;20071;-79
2021/04/04 06:43:52;;;;;;;24.02;8.40;;;5.90;79.70;;;;;;5015759;28;20069;-79
2021/04/04 06:46:33;;;;;;;19.90;7.28;;;5.90;79.40;;;;;;5062498;28;20495;-80
2021/04/04 06:49:08;;;;;;;16.77;6.75;;;5.90;79.50;;;;;;5078089;28;20088;-79
2021/04/04 06:51:53;;;;;;;19.40;6.70;;;6.00;79.50;;;;;;5072451;28;20036;-79
2021/04/04 06:54:40;;;;;;;23.35;7.30;;;5.90;79.70;;;;;;5077690;28;20072;-79
2021/04/04 06:57:38;;;;;;;26.35;8.40;;;6.00;79.60;;;;;;5070976;28;20044;-79
2021/04/04 07:00:13;;;;;;;18.98;7.22;;;6.00;79.50;;;;;;5071879;28;20109;-79
2021/04/04 07:03:05;;;;;;;20.75;7.47;;;6.00;79.40;;;;;;5077929;28;20043;-79
2021/04/04 07:05:56;;;;;;;22.05;8.00;;;6.10;79.70;;;;;;5074577;28;20032;-79
2021/04/04 07:08:28;;;;;;;17.10;8.07;;;6.10;79.50;;;;;;5054452;28;20097;-79
2021/04/04 07:11:44;;;;;;;21.58;8.55;;;6.10;79.40;;;;;;5072186;28;20433;-78
2021/04/04 07:14:42;;;;;;;18.10;6.68;;;6.10;79.50;;;;;;5033336;28;20127;-78
2021/04/04 07:17:53;;;;;;;18.05;7.35;;;6.20;79.50;;;;;;5076613;28;20043;-79
2021/04/04 07:20:33;;;;;;;23.20;8.18;;;6.20;79.30;;;;;;5042866;28;20113;-80
2021/04/04 07:23:23;;;;;;;27.38;8.60;;;6.20;79.80;;;;;;5075678;28;20040;-80
2021/04/04 07:26:10;;;;;;;25.90;8.45;;;6.30;78.90;;;;;;5075899;28;20037;-79
2021/04/04 07:28:57;;;;;;;22.48;8.05;;;6.30;78.80;;;;;;5078963;28;20029;-79
2021/04/04 07:31:29;;;;;;;20.58;8.13;;;6.30;78.70;;;;;;5053800;28;20080;-79
2021/04/04 07:34:09;;;;;;;22.08;7.85;;;6.30;78.80;;;;;;5084243;27;20052;-79
2021/04/04 07:37:00;;;;;;;23.80;8.88;;;6.30;78.80;;;;;;5067325;28;20036;-79
2021/04/04 07:39:44;;;;;;;26.67;7.82;;;6.30;78.80;;;;;;5075635;28;20599;-78
2021/04/04 07:42:33;;;;;;;22.80;8.35;;;6.40;78.70;;;;;;5080272;28;20413;-79
2021/04/04 07:45:50;;;;;;;27.55;8.75;;;6.40;78.90;;;;;;5076053;28;20097;-78
2021/04/04 07:48:34;;;;;;;22.98;8.63;;;6.40;78.90;;;;;;4982185;28;20043;-81
2021/04/04 07:51:20;;;;;;;22.48;8.65;;;6.40;78.80;;;;;;5073122;28;20045;-79
2021/04/04 07:54:27;;;;;;;24.15;8.18;;;6.40;78.70;;;;;;5077029;28;20032;-79
2021/04/04 07:57:28;;;;;;;25.95;8.75;;;6.40;78.70;;;;;;5009607;28;20052;-79
2021/04/04 07:59:58;;;;;;;21.00;8.15;;;6.40;78.60;;;;;;5046450;28;20052;-79
2021/04/04 08:02:35;;;;;;;19.83;8.23;;;6.50;78.70;;;;;;5080110;28;20058;-78
2021/04/04 08:05:13;;;;;;;28.33;8.57;;;6.50;78.80;;;;;;5076713;28;20052;-79
2021/04/04 08:08:04;;;;;;;25.35;8.23;;;6.60;79.00;;;;;;5080418;28;20068;-78
2021/04/04 08:10:39;;;;;;;26.60;9.48;;;6.60;78.90;;;;;;5073664;28;20418;-78
2021/04/04 08:13:21;;;;;;;29.48;11.15;;;6.60;78.80;;;;;;5076229;28;20415;-79
2021/04/04 08:15:50;;;;;;;40.78;14.55;;;6.60;78.60;;;;;;5074547;28;20126;-79
2021/04/04 08:18:16;;;;;;;31.33;10.65;;;6.70;78.80;;;;;;5069908;28;20055;-79
2021/04/04 08:20:48;;;;;;;22.92;8.95;;;6.70;78.70;;;;;;5063097;28;20486;-78
2021/04/04 08:23:34;;;;;;;44.90;16.27;;;6.70;78.60;;;;;;5082084;28;20040;-78
2021/04/04 08:26:04;;;;;;;36.85;13.75;;;6.70;78.50;;;;;;5072604;28;20073;-79
2021/04/04 08:28:45;;;;;;;22.48;9.38;;;6.80;78.40;;;;;;5073415;28;20516;-79
2021/04/04 08:31:54;;;;;;;23.58;9.13;;;6.80;78.50;;;;;;5082261;28;20038;-78
2021/04/04 08:34:46;;;;;;;23.42;9.30;;;6.90;78.50;;;;;;5000727;28;20076;-79
2021/04/04 08:37:31;;;;;;;28.60;9.18;;;6.90;78.20;;;;;;4998197;28;20101;-79
2021/04/04 08:40:00;;;;;;;21.23;8.80;;;6.90;78.00;;;;;;5058151;28;20121;-79
2021/04/04 08:42:29;;;;;;;25.70;10.05;;;7.00;77.70;;;;;;5079546;28;20028;-79
2021/04/04 08:45:07;;;;;;;27.48;9.43;;;7.00;77.80;;;;;;5081174;28;20372;-79
2021/04/04 08:47:35;;;;;;;30.90;9.20;;;7.10;77.60;;;;;;5078781;28;20086;-79
2021/04/04 08:50:05;;;;;;;29.80;9.13;;;7.20;77.40;;;;;;5075463;28;20032;-79
2021/04/04 08:52:34;;;;;;;17.35;8.18;;;7.20;77.00;;;;;;5079350;28;20036;-79
2021/04/04 08:55:04;;;;;;;27.15;8.93;;;7.20;76.90;;;;;;5085141;28;20024;-79
2021/04/04 08:57:43;;;;;;;23.58;8.48;;;7.20;77.00;;;;;;5068808;28;20490;-79
2021/04/04 09:00:11;;;;;;;22.63;9.02;;;7.30;77.20;;;;;;5086772;28;20036;-79
2021/04/04 09:03:06;;;;;;;28.52;8.65;;;7.30;77.00;;;;;;5072643;28;20040;-84
2021/04/04 09:05:36;;;;;;;39.17;14.65;;;7.40;76.80;;;;;;5082309;28;20044;-80
2021/04/04 09:08:04;;;;;;;24.98;10.93;;;7.40;76.70;;;;;;5067819;28;20490;-81
2021/04/04 09:10:41;;;;;;;32.13;10.27;;;7.40;76.50;;;;;;5068283;28;20043;-80
2021/04/04 09:13:17;;;;;;;26.98;8.25;;;7.50;76.50;;;;;;5085598;28;20409;-80
2021/04/04 09:15:58;;;;;;;23.90;8.48;;;7.50;76.00;;;;;;5080472;28;20036;-81
2021/04/04 09:18:26;;;;;;;23.83;8.90;;;7.60;75.80;;;;;;5077075;28;20032;-81
2021/04/04 09:21:05;;;;;;;22.38;8.43;;;7.70;76.00;;;;;;5084459;28;20243;-80
2021/04/04 09:23:31;;;;;;;20.88;8.73;;;7.70;75.70;;;;;;5080257;28;20098;-80
2021/04/04 09:26:13;;;;;;;23.48;8.32;;;7.70;75.60;;;;;;5062884;28;20115;-81
2021/04/04 09:28:40;;;;;;;26.52;8.45;;;7.80;75.70;;;;;;5078936;28;20035;-81
2021/04/04 09:31:17;;;;;;;25.83;8.57;;;7.90;75.70;;;;;;5045441;28;20415;-83
2021/04/04 09:33:48;;;;;;;22.15;8.32;;;7.90;75.10;;;;;;5078337;28;20063;-79
2021/04/04 09:36:15;;;;;;;20.63;8.27;;;7.80;75.10;;;;;;5069003;28;20494;-81
2021/04/04 09:38:42;;;;;;;22.83;8.25;;;7.80;75.20;;;;;;5071850;28;20131;-82
2021/04/04 09:41:10;;;;;;;23.17;8.60;;;7.80;75.00;;;;;;5060971;28;20052;-79
2021/04/04 09:44:00;;;;;;;28.40;9.13;;;7.80;75.00;;;;;;5082457;28;20028;-84
2021/04/04 09:46:27;;;;;;;32.00;10.23;;;7.90;75.00;;;;;;5080026;28;20024;-82
2021/04/04 09:48:53;;;;;;;37.78;11.23;;;7.80;75.00;;;;;;5078787;28;20040;-82
2021/04/04 09:51:19;;;;;;;26.85;8.45;;;7.90;74.90;;;;;;5048401;28;20249;-80
2021/04/04 09:53:50;;;;;;;25.60;9.48;;;7.80;74.90;;;;;;5073909;28;20028;-81
2021/04/04 09:56:28;;;;;;;22.20;7.85;;;7.90;75.10;;;;;;5076550;28;20123;-81
2021/04/04 09:58:54;;;;;;;21.95;7.93;;;7.90;75.10;;;;;;5078097;28;20038;-83
2021/04/04 10:01:25;;;;;;;27.55;9.32;;;7.90;75.20;;;;;;5077984;28;20032;-80
2021/04/04 10:04:06;;;;;;;23.80;8.35;;;8.00;75.50;;;;;;5077887;28;20032;-82
2021/04/04 10:06:36;;;;;;;29.33;8.30;;;8.00;75.40;;;;;;5077710;28;20399;-81
2021/04/04 10:09:08;;;;;;;25.50;9.60;;;8.10;75.50;;;;;;5076327;28;20029;-82
2021/04/04 10:11:35;;;;;;;28.17;9.20;;;8.10;74.90;;;;;;5063165;28;20032;-81
2021/04/04 10:14:12;;;;;;;21.42;7.22;;;8.20;74.80;;;;;;5057324;28;20482;-81
2021/04/04 10:16:38;;;;;;;30.88;9.65;;;8.20;75.00;;;;;;5075232;28;20089;-85
2021/04/04 10:19:10;;;;;;;31.77;8.98;;;8.20;74.70;;;;;;5080185;28;20491;-81
2021/04/04 10:21:38;;;;;;;18.77;7.10;;;8.20;74.50;;;;;;5074201;28;20373;-82
2021/04/04 10:24:26;;;;;;;27.38;7.85;;;8.20;75.20;;;;;;5083820;28;20028;-82
2021/04/04 10:27:17;;;;;;;24.42;7.97;;;8.20;74.50;;;;;;5073867;28;20340;-86
2021/04/04 10:29:45;;;;;;;35.58;9.25;;;8.30;74.50;;;;;;5075406;28;20039;-82
2021/04/04 10:32:11;;;;;;;21.45;7.22;;;8.30;74.20;;;;;;5071734;28;20435;-83
2021/04/04 10:38:35;;;;;;;22.70;6.30;;;8.40;73.90;;;;;;5023614;28;20056;-83
2021/04/04 10:41:35;;;;;;;12.20;4.50;;;8.40;74.00;;;;;;4971954;28;20050;-89
2021/04/04 10:44:06;;;;;;;28.20;8.63;;;8.50;73.20;;;;;;4963214;28;20043;-86
2021/04/04 10:46:42;;;;;;;24.77;7.18;;;8.50;73.80;;;;;;4958859;28;20054;-85
2021/04/04 10:49:53;;;;;;;23.67;4.95;;;8.50;73.60;;;;;;4945235;28;20042;-86
2021/04/04 10:52:21;;;;;;;16.33;3.63;;;8.50;73.00;;;;;;4951554;28;20092;-86
2021/04/04 10:54:48;;;;;;;14.02;3.58;;;8.50;73.10;;;;;;4951168;28;20047;-86
2021/04/04 10:57:14;;;;;;;23.25;6.07;;;8.50;73.40;;;;;;4929889;28;20869;-87
2021/04/04 11:00:01;;;;;;;16.52;4.28;;;8.50;73.40;;;;;;4916320;28;20092;-86
2021/04/04 11:02:37;;;;;;;15.35;3.88;;;8.60;73.70;;;;;;4963849;28;20524;-85
2021/04/04 11:05:24;;;;;;;17.65;4.03;;;8.60;73.50;;;;;;4960534;28;20133;-85
2021/04/04 11:07:57;;;;;;;13.20;3.92;;;8.70;73.40;;;;;;4950931;28;20050;-86
2021/04/04 11:10:23;;;;;;;13.00;3.45;;;8.70;73.20;;;;;;4958127;28;20122;-85
2021/04/04 11:12:53;;;;;;;12.27;3.60;;;8.70;73.30;;;;;;4937531;28;20599;-86
2021/04/04 11:15:20;;;;;;;12.52;4.25;;;8.70;73.40;;;;;;4965613;28;20073;-85
2021/04/04 11:17:49;;;;;;;17.80;4.88;;;8.80;73.40;;;;;;4918878;28;20381;-84
2021/04/04 11:20:18;;;;;;;16.08;4.57;;;8.80;73.20;;;;;;4946221;28;20409;-85
2021/04/04 11:22:45;;;;;;;13.52;3.58;;;8.80;72.90;;;;;;4953386;28;20456;-86
2021/04/04 11:25:15;;;;;;;14.95;3.85;;;8.80;72.70;;;;;;4979114;28;20037;-88
2021/04/04 11:27:49;;;;;;;16.75;4.40;;;8.80;72.80;;;;;;4988075;28;20431;-86
2021/04/04 11:30:27;;;;;;;19.77;4.40;;;8.80;72.70;;;;;;4979605;28;20046;-86
2021/04/04 11:33:16;;;;;;;14.35;3.95;;;8.80;72.50;;;;;;5023683;28;20045;-86
2021/04/04 11:36:11;;;;;;;16.50;4.40;;;8.90;73.00;;;;;;4972535;28;20053;-87
2021/04/04 11:38:54;;;;;;;17.63;3.78;;;8.90;73.20;;;;;;4977540;28;20496;-87
2021/04/04 11:41:23;;;;;;;15.02;3.80;;;8.90;73.00;;;;;;5045903;28;20159;-85
2021/04/04 11:44:13;;;;;;;17.98;3.38;;;8.90;72.90;;;;;;5049816;28;20067;-87
2021/04/04 11:47:01;;;;;;;17.90;4.10;;;8.90;72.50;;;;;;5080287;28;20044;-88
2021/04/04 11:49:38;;;;;;;21.48;4.70;;;9.00;72.60;;;;;;5030986;28;20055;-86
2021/04/04 11:52:08;;;;;;;14.38;3.95;;;8.90;72.50;;;;;;5064980;28;20051;-86
2021/04/04 11:54:49;;;;;;;14.57;3.90;;;9.00;72.50;;;;;;5057777;28;20045;-86
2021/04/04 11:57:25;;;;;;;12.00;3.53;;;9.00;72.10;;;;;;5064462;28;20273;-86
2021/04/04 12:00:00;;;;;;;20.23;4.57;;;9.10;72.10;;;;;;5075240;28;20478;-86
2021/04/04 12:02:39;;;;;;;19.70;4.40;;;9.10;72.00;;;;;;5066471;28;20052;-86
2021/04/04 12:05:12;;;;;;;16.90;4.00;;;9.20;72.50;;;;;;5066784;28;20048;-83
2021/04/04 12:07:58;;;;;;;16.05;4.25;;;9.30;71.60;;;;;;5065484;28;20106;-87
2021/04/04 12:10:42;;;;;;;11.18;3.63;;;9.30;71.20;;;;;;5058315;28;20105;-85
2021/04/04 12:13:41;;;;;;;14.15;4.55;;;9.40;71.40;;;;;;5068983;28;20044;-88
2021/04/04 12:16:10;;;;;;;14.15;4.78;;;9.40;70.40;;;;;;5080355;28;20032;-86
2021/04/04 12:18:40;;;;;;;15.98;4.05;;;9.50;71.10;;;;;;5069078;28;20101;-87
2021/04/04 12:21:05;;;;;;;19.70;4.57;;;9.50;71.10;;;;;;5050078;28;20127;-86
2021/04/04 12:23:31;;;;;;;17.45;5.22;;;9.50;70.90;;;;;;5047442;28;20509;-86
2021/04/04 12:26:01;;;;;;;20.00;4.88;;;9.50;71.00;;;;;;5050016;28;20032;-87
2021/04/04 12:28:27;;;;;;;25.23;5.30;;;9.60;71.20;;;;;;5045170;28;20335;-87
2021/04/04 12:30:57;;;;;;;17.65;4.38;;;9.50;70.90;;;;;;5070648;28;20031;-85
2021/04/04 12:33:23;;;;;;;14.70;4.32;;;9.50;70.90;;;;;;5083343;28;20032;-84
2021/04/04 12:35:51;;;;;;;14.73;4.78;;;9.40;70.90;;;;;;5050905;28;20832;-84
2021/04/04 12:38:26;;;;;;;26.10;5.10;;;9.40;70.70;;;;;;5055605;28;20044;-83
2021/04/04 12:40:59;;;;;;;18.40;4.72;;;9.40;71.00;;;;;;5068863;28;20040;-83
2021/04/04 12:43:29;;;;;;;20.13;5.78;;;9.40;71.80;;;;;;5083286;28;20040;-84
2021/04/04 12:45:55;;;;;;;25.83;4.60;;;9.40;71.50;;;;;;5051219;28;20108;-83
2021/04/04 12:48:23;;;;;;;21.45;5.55;;;9.40;71.50;;;;;;5049154;28;20513;-84
2021/04/04 12:51:00;;;;;;;25.00;5.18;;;9.50;71.30;;;;;;5077353;28;20151;-85
2021/04/04 12:53:30;;;;;;;18.75;4.55;;;9.50;70.80;;;;;;5069023;28;20063;-82
2021/04/04 12:55:57;;;;;;;19.13;4.85;;;9.50;70.90;;;;;;5073786;28;20048;-85
2021/04/04 12:58:35;;;;;;;21.70;4.53;;;9.40;70.80;;;;;;5069432;28;20093;-84
2021/04/04 13:01:03;;;;;;;19.60;4.25;;;9.50;71.00;;;;;;5089319;28;20036;-82
2021/04/04 13:03:36;;;;;;;28.70;5.15;;;9.50;71.40;;;;;;5082475;28;20040;-82
2021/04/04 13:06:03;;;;;;;19.33;4.07;;;9.50;70.70;;;;;;5089957;28;20044;-81
2021/04/04 13:08:32;;;;;;;16.95;5.10;;;9.60;70.30;;;;;;5082209;28;20043;-84
2021/04/04 13:11:02;;;;;;;17.45;5.00;;;9.60;70.30;;;;;;5083985;28;20042;-84
2021/04/04 13:13:30;;;;;;;15.43;3.53;;;9.60;69.90;;;;;;5081433;28;20405;-84
2021/04/04 13:15:58;;;;;;;17.48;3.85;;;9.70;69.70;;;;;;5082075;28;20043;-82
2021/04/04 13:18:30;;;;;;;18.75;4.25;;;9.70;69.10;;;;;;5086518;28;20042;-84
2021/04/04 13:21:03;;;;;;;26.85;5.95;;;9.60;68.80;;;;;;5081562;28;20048;-84
2021/04/04 13:23:37;;;;;;;24.85;4.80;;;9.70;69.20;;;;;;5076354;28;20304;-83